Time;durP1;ratioP1;P1;durP2;ratioP2;P2;SDS_P1;SDS_P2;PMS_P1;PMS_P2;Temp;Humidity;BMP_temperature;BMP_pressure;BME280_temperature;BME280_humidity;BME280_pressure;Samples;Min_cycle;Max_cycle;Signal;HPM_P1;HPM_P2
2022/09/08 00:00:49;;;;;;;20.08;18.00;;;;;;;20.01;100.00;99599.19;5030409;28;20049;-80
2022/09/08 00:03:17;;;;;;;21.00;19.10;;;;;;;19.91;100.00;99608.38;5023836;28;20107;-81
2022/09/08 00:06:03;;;;;;;19.30;17.60;;;;;;;19.89;100.00;99597.66;5044855;28;20044;-82
2022/09/08 00:08:30;;;;;;;20.05;18.35;;;;;;;19.93;100.00;99598.19;5024574;28;20566;-82
2022/09/08 00:11:01;;;;;;;21.63;19.45;;;;;;;19.91;100.00;99602.75;5040283;28;20119;-81
2022/09/08 00:13:29;;;;;;;20.42;18.52;;;;;;;19.89;100.00;99605.34;5042252;28;20394;-81
2022/09/08 00:15:56;;;;;;;20.60;18.67;;;;;;;19.91;100.00;99594.31;5031669;28;20041;-81
2022/09/08 00:18:23;;;;;;;21.70;19.80;;;;;;;19.87;100.00;99588.19;5042428;28;20037;-82
2022/09/08 00:20:49;;;;;;;20.80;18.80;;;;;;;19.89;100.00;99582.81;5020623;28;20155;-81
2022/09/08 00:23:15;;;;;;;21.27;19.30;;;;;;;19.88;100.00;99586.91;5050538;28;20088;-82
2022/09/08 00:25:40;;;;;;;22.65;20.55;;;;;;;19.83;100.00;99593.28;5029434;28;20049;-81
2022/09/08 00:28:06;;;;;;;20.80;19.10;;;;;;;19.88;100.00;99592.53;5041532;28;20124;-82
2022/09/08 00:30:33;;;;;;;21.33;19.50;;;;;;;19.86;100.00;99586.63;5045966;28;20080;-82
2022/09/08 00:32:58;;;;;;;21.00;19.08;;;;;;;19.74;100.00;99579.47;5047210;28;20030;-82
2022/09/08 00:35:24;;;;;;;20.45;18.55;;;;;;;19.60;100.00;99574.88;5032183;28;20044;-82
2022/09/08 00:37:52;;;;;;;20.17;18.48;;;;;;;19.55;100.00;99565.91;5033880;28;20594;-81
2022/09/08 00:40:18;;;;;;;19.60;17.90;;;;;;;19.51;100.00;99573.06;5033676;28;20178;-82
2022/09/08 00:42:44;;;;;;;20.38;18.60;;;;;;;19.34;100.00;99563.78;5049908;28;20142;-82
2022/09/08 00:45:11;;;;;;;20.35;18.65;;;;;;;19.32;100.00;99578.38;5049600;28;20522;-82
2022/09/08 00:47:47;;;;;;;20.65;18.95;;;;;;;19.26;100.00;99574.78;5042788;28;20414;-82
2022/09/08 00:50:21;;;;;;;20.50;18.35;;;;;;;19.30;100.00;99580.91;5054076;28;20052;-82
2022/09/08 00:53:00;;;;;;;22.30;20.30;;;;;;;19.33;100.00;99591.16;5034123;28;20041;-82
2022/09/08 00:55:29;;;;;;;22.75;20.73;;;;;;;19.30;100.00;99592.16;5049348;28;20048;-82
2022/09/08 00:57:54;;;;;;;23.65;21.52;;;;;;;19.18;100.00;99584.22;5050709;28;20597;-82
2022/09/08 01:05:56;;;;;;;24.35;22.20;;;;;;;19.14;100.00;99584.47;3302902;26;20046;-82
2022/09/08 01:14:11;;;;;;;23.10;20.98;;;;;;;19.10;100.00;99575.50;5011283;28;20499;-82
2022/09/08 01:16:48;;;;;;;23.65;21.60;;;;;;;19.11;100.00;99585.47;5010288;28;20046;-82
2022/09/08 01:19:34;;;;;;;24.00;21.90;;;;;;;18.99;100.00;99589.53;5010303;28;20080;-83
2022/09/08 01:22:33;;;;;;;22.95;20.90;;;;;;;19.07;100.00;99590.56;5008014;28;20137;-82
2022/09/08 01:25:17;;;;;;;23.15;21.05;;;;;;;19.05;100.00;99593.09;5009319;28;20078;-81
2022/09/08 01:27:46;;;;;;;24.02;21.90;;;;;;;18.95;100.00;99589.78;5008897;28;20060;-82
2022/09/08 01:30:12;;;;;;;24.48;22.25;;;;;;;18.95;100.00;99594.63;5009392;28;20034;-82
2022/09/08 01:32:40;;;;;;;24.10;21.67;;;;;;;18.94;100.00;99595.88;5007699;28;20096;-82
2022/09/08 01:35:06;;;;;;;22.63;20.60;;;;;;;18.95;100.00;99598.19;4993985;28;20040;-82
2022/09/08 01:37:32;;;;;;;22.48;20.48;;;;;;;18.99;100.00;99595.16;5011551;28;20578;-82
2022/09/08 01:39:57;;;;;;;21.65;19.75;;;;;;;18.93;100.00;99591.53;4989166;28;20042;-83
2022/09/08 01:42:24;;;;;;;22.52;20.63;;;;;;;18.91;100.00;99600.50;5008846;28;20573;-82
2022/09/08 01:44:49;;;;;;;23.10;20.80;;;;;;;18.91;100.00;99589.25;5009908;28;20607;-82
2022/09/08 01:47:15;;;;;;;23.75;21.70;;;;;;;18.87;100.00;99590.75;5008976;28;20049;-82
2022/09/08 01:49:40;;;;;;;23.58;21.27;;;;;;;18.83;100.00;99582.56;4987806;28;20101;-82
2022/09/08 01:52:06;;;;;;;23.50;21.48;;;;;;;18.75;100.00;99583.56;5000691;28;20034;-83
2022/09/08 01:54:32;;;;;;;22.10;20.17;;;;;;;18.77;100.00;99575.38;4988769;28;20118;-82
2022/09/08 01:56:57;;;;;;;23.58;21.67;;;;;;;18.72;100.00;99576.13;4992925;28;20088;-83
2022/09/08 01:59:23;;;;;;;22.27;20.38;;;;;;;18.73;100.00;99580.47;5010509;28;20065;-83
2022/09/08 02:01:49;;;;;;;22.20;20.15;;;;;;;18.74;100.00;99570.78;4986525;28;20053;-82
2022/09/08 02:04:14;;;;;;;21.73;19.73;;;;;;;18.80;100.00;99577.97;4989541;28;20117;-82
2022/09/08 02:06:40;;;;;;;21.92;20.05;;;;;;;18.76;100.00;99576.66;4975731;28;20471;-82
2022/09/08 02:09:06;;;;;;;22.85;20.95;;;;;;;18.73;100.00;99569.22;4970797;28;20042;-82
2022/09/08 02:11:31;;;;;;;20.75;18.95;;;;;;;18.74;100.00;99570.78;4990655;28;20042;-82
2022/09/08 02:13:58;;;;;;;23.13;21.17;;;;;;;18.77;100.00;99576.16;4989934;28;20121;-82
2022/09/08 02:16:24;;;;;;;21.63;19.63;;;;;;;18.81;100.00;99576.66;4990248;28;20049;-82
2022/09/08 02:18:52;;;;;;;21.20;19.30;;;;;;;18.82;100.00;99574.63;4973910;28;20565;-82
2022/09/08 02:21:19;;;;;;;20.73;18.90;;;;;;;18.88;100.00;99586.69;4990387;28;20046;-83
2022/09/08 02:23:48;;;;;;;26.17;23.70;;;;;;;18.69;100.00;99577.13;4970393;28;20046;-83
2022/09/08 02:26:20;;;;;;;26.77;24.38;;;;;;;18.44;100.00;99579.53;4990578;28;20046;-83
2022/09/08 02:28:45;;;;;;;23.80;21.80;;;;;;;18.42;100.00;99587.69;4973650;28;21739;-83
2022/09/08 02:31:12;;;;;;;22.17;20.17;;;;;;;18.43;100.00;99586.44;4973690;28;20038;-83
2022/09/08 02:33:38;;;;;;;24.27;22.08;;;;;;;18.35;100.00;99588.16;4990050;28;20035;-83
2022/09/08 02:36:04;;;;;;;22.80;20.80;;;;;;;18.34;100.00;99592.25;4989604;28;20038;-83
2022/09/08 02:38:29;;;;;;;22.25;20.35;;;;;;;18.36;100.00;99583.31;4989608;28;20038;-84
2022/09/08 02:40:55;;;;;;;21.35;19.48;;;;;;;18.37;100.00;99585.63;4989876;28;20491;-83
2022/09/08 02:43:22;;;;;;;22.60;20.45;;;;;;;18.32;100.00;99589.16;4987455;28;20038;-83
2022/09/08 02:45:47;;;;;;;22.38;20.35;;;;;;;18.31;100.00;99576.41;4971509;28;20074;-83
2022/09/08 02:48:13;;;;;;;21.65;19.55;;;;;;;18.35;100.00;99576.94;4972900;28;20090;-83
2022/09/08 02:50:39;;;;;;;21.17;19.33;;;;;;;18.35;100.00;99582.56;4988619;28;20042;-83
2022/09/08 02:53:05;;;;;;;24.33;22.13;;;;;;;18.32;100.00;99580.72;4972452;28;20042;-83
2022/09/08 02:55:30;;;;;;;24.50;22.40;;;;;;;18.21;100.00;99572.25;4973320;28;20050;-77
2022/09/08 02:57:56;;;;;;;22.92;20.83;;;;;;;18.16;100.00;99570.16;4987897;28;20113;-77
2022/09/08 03:00:21;;;;;;;21.77;19.90;;;;;;;18.23;100.00;99578.13;4989142;28;20117;-76
2022/09/08 03:02:47;;;;;;;20.48;18.58;;;;;;;18.24;100.00;99562.06;4989165;28;20050;-77
2022/09/08 03:05:13;;;;;;;21.17;19.27;;;;;;;18.24;100.00;99564.88;4955903;28;20066;-77
2022/09/08 03:07:39;;;;;;;20.50;18.63;;;;;;;18.30;100.00;99569.25;4990591;28;20153;-77
2022/09/08 03:10:06;;;;;;;26.13;23.55;;;;;;;18.26;100.00;99579.16;4960928;28;20125;-76
2022/09/08 03:12:33;;;;;;;24.08;21.90;;;;;;;18.09;100.00;99570.63;4990664;28;20515;-83
2022/09/08 03:14:58;;;;;;;27.00;24.40;;;;;;;17.88;100.00;99572.75;4952753;28;20122;-76
2022/09/08 03:17:24;;;;;;;24.25;22.10;;;;;;;17.85;100.00;99562.53;4989469;28;20121;-77
2022/09/08 03:19:50;;;;;;;25.05;22.73;;;;;;;17.93;100.00;99569.25;4989289;28;20046;-76
2022/09/08 03:22:17;;;;;;;41.95;25.55;;;;;;;17.78;100.00;99565.81;4990767;28;20069;-76
2022/09/08 03:24:43;;;;;;;62.00;24.80;;;;;;;17.64;100.00;99573.09;4958451;28;20047;-77
2022/09/08 03:27:09;;;;;;;37.33;24.70;;;;;;;17.61;100.00;99564.91;4978231;28;20069;-76
2022/09/08 03:29:34;;;;;;;27.85;24.70;;;;;;;17.60;100.00;99564.13;4989308;28;20046;-76
2022/09/08 03:32:00;;;;;;;32.92;25.02;;;;;;;17.67;100.00;99562.91;4971944;28;20034;-76
2022/09/08 03:34:28;;;;;;;24.23;22.17;;;;;;;17.77;100.00;99571.91;4954587;28;20038;-76
2022/09/08 03:36:54;;;;;;;27.40;23.50;;;;;;;17.84;100.00;99554.63;4990718;28;20144;-76
2022/09/08 03:39:20;;;;;;;24.17;22.08;;;;;;;17.88;100.00;99553.13;4985424;28;20519;-76
2022/09/08 03:41:45;;;;;;;25.67;23.10;;;;;;;17.95;100.00;99565.94;4988835;28;20049;-76
2022/09/08 03:44:11;;;;;;;22.95;20.85;;;;;;;18.02;100.00;99562.69;4988513;28;20026;-76
2022/09/08 03:46:36;;;;;;;26.38;23.92;;;;;;;18.00;100.00;99559.59;4988124;28;20057;-76
2022/09/08 03:49:02;;;;;;;24.70;22.60;;;;;;;18.03;100.00;99562.19;4989366;28;20089;-76
2022/09/08 03:51:28;;;;;;;24.90;22.70;;;;;;;17.99;100.00;99555.25;4969406;28;20050;-77
2022/09/08 03:56:40;;;;;;;35.30;24.55;;;;;;;17.73;100.00;99541.28;4973582;28;20038;-83
2022/09/08 03:59:06;;;;;;;33.53;23.42;;;;;;;17.86;100.00;99549.28;4986861;28;20035;-82
2022/09/08 04:01:31;;;;;;;39.50;25.08;;;;;;;17.91;100.00;99548.56;4988556;28;20082;-82
2022/09/08 04:03:57;;;;;;;81.63;25.02;;;;;;;17.83;100.00;99541.88;4989916;28;20038;-83
2022/09/08 04:06:22;;;;;;;26.75;23.98;;;;;;;17.77;100.00;99525.00;4955525;28;20057;-83
2022/09/08 04:08:48;;;;;;;121.05;25.45;;;;;;;17.84;100.00;99534.97;4972771;28;20408;-82
2022/09/08 04:11:13;;;;;;;91.70;25.98;;;;;;;17.76;100.00;99526.25;4970363;28;20121;-83
2022/09/08 04:13:39;;;;;;;108.40;27.20;;;;;;;17.63;100.00;99515.44;4990178;28;20108;-82
2022/09/08 04:16:05;;;;;;;60.47;30.35;;;;;;;17.65;100.00;99520.56;4989189;28;20045;-82
2022/09/08 04:18:31;;;;;;;83.43;28.88;;;;;;;17.68;100.00;99528.75;4988921;28;20034;-82
2022/09/08 04:20:59;;;;;;;93.90;30.70;;;;;;;17.70;100.00;99545.88;4956062;28;20037;-83
2022/09/08 04:23:24;;;;;;;116.60;29.50;;;;;;;17.51;100.00;99538.28;4989842;28;20124;-82
2022/09/08 04:26:01;;;;;;;98.38;29.98;;;;;;;17.47;100.00;99558.09;4971864;28;20515;-83
2022/09/08 04:28:27;;;;;;;101.78;31.33;;;;;;;17.45;100.00;99555.03;4983234;28;20043;-83
2022/09/08 04:30:52;;;;;;;39.45;28.63;;;;;;;17.45;100.00;99551.47;4989234;28;20118;-77
2022/09/08 04:33:18;;;;;;;31.75;26.58;;;;;;;17.48;100.00;99556.84;4987806;28;21475;-76
2022/09/08 04:35:43;;;;;;;51.05;27.05;;;;;;;17.38;100.00;99554.72;4987078;28;20046;-76
2022/09/08 04:38:09;;;;;;;50.70;25.98;;;;;;;17.44;100.00;99547.13;4970784;28;20043;-76
2022/09/08 04:40:34;;;;;;;52.85;27.52;;;;;;;17.42;100.00;99546.84;4986313;28;20124;-76
2022/09/08 04:43:00;;;;;;;27.80;25.30;;;;;;;17.50;100.00;99543.13;4987878;28;20172;-75
2022/09/08 04:45:25;;;;;;;27.55;25.05;;;;;;;17.53;100.00;99536.50;4983771;28;20050;-76
2022/09/08 04:47:51;;;;;;;26.67;24.20;;;;;;;17.66;100.00;99536.91;4984138;28;20541;-75
2022/09/08 04:50:17;;;;;;;24.23;21.92;;;;;;;17.73;100.00;99526.47;4980960;28;20138;-76
2022/09/08 04:52:42;;;;;;;24.25;22.05;;;;;;;17.70;100.00;99523.44;4983773;28;20041;-76
2022/09/08 04:55:10;;;;;;;24.80;22.60;;;;;;;17.69;100.00;99533.09;4980353;28;20046;-76
2022/09/08 04:57:36;;;;;;;24.92;22.73;;;;;;;17.70;100.00;99533.88;4980526;28;20046;-76
2022/09/08 05:00:03;;;;;;;23.70;21.65;;;;;;;17.68;100.00;99531.56;4978406;28;20042;-76
2022/09/08 05:02:29;;;;;;;23.58;21.48;;;;;;;17.66;100.00;99525.69;4947252;28;20050;-76
2022/09/08 05:04:55;;;;;;;24.73;22.48;;;;;;;17.65;100.00;99532.56;4978300;28;20039;-76
2022/09/08 05:07:20;;;;;;;25.40;22.98;;;;;;;17.73;100.00;99532.09;4986472;28;20077;-76
2022/09/08 05:09:46;;;;;;;22.67;20.55;;;;;;;17.74;100.00;99526.00;4986990;28;20507;-76
2022/09/08 05:12:11;;;;;;;23.58;21.58;;;;;;;17.79;100.00;99533.69;4971674;28;20070;-76
2022/09/08 05:14:37;;;;;;;20.67;18.48;;;;;;;17.88;100.00;99532.72;4991245;28;20574;-76
2022/09/08 05:17:02;;;;;;;22.58;20.48;;;;;;;17.85;100.00;99533.72;4990986;28;20049;-76
2022/09/08 05:19:28;;;;;;;23.42;21.25;;;;;;;17.90;100.00;99528.16;4989918;28;20411;-76
2022/09/08 05:21:53;;;;;;;23.85;21.70;;;;;;;17.88;100.00;99532.72;4986939;28;20150;-76
2022/09/08 05:24:20;;;;;;;23.52;21.17;;;;;;;17.94;100.00;99531.50;4992794;28;20343;-76
2022/09/08 05:26:46;;;;;;;22.35;20.27;;;;;;;17.98;100.00;99525.66;4992007;28;20073;-77
2022/09/08 05:29:11;;;;;;;20.85;18.85;;;;;;;18.05;100.00;99522.38;4991422;28;20050;-77
2022/09/08 05:31:37;;;;;;;21.13;19.33;;;;;;;18.06;100.00;99526.72;4992003;28;20475;-77
2022/09/08 05:34:02;;;;;;;21.88;19.67;;;;;;;18.12;100.00;99524.72;4958868;28;20046;-76
2022/09/08 05:36:31;;;;;;;21.65;19.70;;;;;;;18.19;100.00;99513.03;4989440;28;20484;-77
2022/09/08 05:38:57;;;;;;;21.27;19.27;;;;;;;18.26;100.00;99512.56;4972802;28;20121;-76
2022/09/08 05:41:23;;;;;;;20.15;18.25;;;;;;;18.31;100.00;99517.44;4992251;28;20050;-74
2022/09/08 05:43:53;;;;;;;20.15;18.30;;;;;;;18.40;100.00;99516.47;4991661;28;20034;-77
2022/09/08 05:46:19;;;;;;;18.95;17.08;;;;;;;18.53;100.00;99514.75;4972176;28;20148;-76
2022/09/08 05:48:46;;;;;;;17.75;15.95;;;;;;;18.69;100.00;99515.31;4989545;28;20042;-77
2022/09/08 05:51:15;;;;;;;18.02;16.33;;;;;;;18.77;100.00;99513.56;4974419;28;20062;-77
2022/09/08 05:53:41;;;;;;;17.05;15.45;;;;;;;18.80;100.00;99493.69;4992770;28;20154;-78
2022/09/08 05:56:08;;;;;;;16.98;15.32;;;;;;;18.91;100.00;99501.34;4990994;28;20340;-77
2022/09/08 05:58:33;;;;;;;16.05;14.55;;;;;;;18.99;100.00;99499.59;4959171;28;20511;-77
2022/09/08 06:01:08;;;;;;;16.60;15.02;;;;;;;19.13;100.00;99498.56;4973835;28;20046;-78
2022/09/08 06:03:34;;;;;;;16.33;14.73;;;;;;;19.14;100.00;99494.50;4973064;28;20074;-78
2022/09/08 06:06:04;;;;;;;17.55;15.25;;;;;;;19.13;100.00;99489.41;4957529;28;20153;-86
2022/09/08 06:08:30;;;;;;;16.27;14.77;;;;;;;19.27;100.00;99491.19;4973658;28;20047;-86
2022/09/08 06:10:56;;;;;;;15.77;14.27;;;;;;;19.38;100.00;99491.19;4989896;28;20088;-86
2022/09/08 06:13:22;;;;;;;16.00;13.90;;;;;;;19.53;100.00;99481.25;4989924;28;20034;-86
2022/09/08 06:15:48;;;;;;;14.50;12.95;;;;;;;19.68;100.00;99477.41;4989238;28;20038;-87
2022/09/08 06:18:15;;;;;;;14.48;13.07;;;;;;;19.77;100.00;99485.59;4991085;28;20051;-87
2022/09/08 06:20:40;;;;;;;12.60;11.40;;;;;;;19.85;100.00;99472.53;4991202;28;20129;-87
2022/09/08 06:23:07;;;;;;;13.10;11.43;;;;;;;20.00;100.00;99479.41;4990935;28;20038;-87
2022/09/08 06:25:41;;;;;;;13.00;10.60;;;;;;;20.12;100.00;99491.41;4974211;28;20566;-87
2022/09/08 06:28:48;;;;;;;10.90;9.82;;;;;;;20.34;100.00;99496.25;4992425;28;20062;-87
2022/09/08 06:31:17;;;;;;;11.68;10.48;;;;;;;20.56;100.00;99501.03;4974636;28;20093;-87
2022/09/08 06:33:43;;;;;;;14.25;10.13;;;;;;;20.62;100.00;99504.59;4975084;28;20039;-87
2022/09/08 06:36:22;;;;;;;12.35;9.70;;;;;;;20.75;100.00;99501.94;4992450;28;20166;-87
2022/09/08 06:39:08;;;;;;;11.88;9.82;;;;;;;20.91;100.00;99515.19;4974796;28;20125;-86
2022/09/08 06:41:44;;;;;;;12.18;10.73;;;;;;;21.03;100.00;99513.09;4992354;28;20045;-87
2022/09/08 06:44:16;;;;;;;14.55;9.63;;;;;;;21.15;100.00;99506.88;4990976;28;20042;-86
2022/09/08 06:46:43;;;;;;;12.75;10.27;;;;;;;21.19;100.00;99517.91;4958788;28;20549;-85
2022/09/08 06:49:09;;;;;;;13.20;9.90;;;;;;;21.25;100.00;99521.44;4974593;28;20046;-85
2022/09/08 06:52:07;;;;;;;11.68;10.27;;;;;;;21.35;100.00;99522.66;4974887;28;20042;-85
2022/09/08 06:54:58;;;;;;;12.98;10.20;;;;;;;21.38;100.00;99519.56;4974440;28;20042;-88
2022/09/08 06:57:39;;;;;;;12.80;10.18;;;;;;;21.49;100.00;99529.22;4974735;28;20047;-87
2022/09/08 07:00:40;;;;;;;13.80;10.20;;;;;;;21.60;100.00;99534.78;4990722;28;20137;-87
2022/09/08 07:03:24;;;;;;;14.10;10.65;;;;;;;21.71;100.00;99546.00;4959035;28;20201;-78
2022/09/08 07:05:55;;;;;;;11.35;9.65;;;;;;;21.99;100.00;99543.72;4972409;28;20051;-77
2022/09/08 07:08:39;;;;;;;12.55;9.18;;;;;;;22.00;100.00;99536.75;4972029;28;20055;-79
2022/09/08 07:11:28;;;;;;;12.93;8.77;;;;;;;22.03;100.00;99538.56;4965229;28;20053;-77
2022/09/08 07:14:19;;;;;;;10.63;8.25;;;;;;;21.92;100.00;99541.47;4991462;28;20046;-79
2022/09/08 07:17:00;;;;;;;9.30;8.40;;;;;;;22.17;100.00;99531.72;4955098;28;20038;-78
2022/09/08 07:19:30;;;;;;;13.70;8.77;;;;;;;22.15;100.00;99523.03;4954927;28;20389;-80
2022/09/08 07:22:15;;;;;;;10.68;8.35;;;;;;;22.47;100.00;99530.91;4954915;28;20142;-78
2022/09/08 07:24:42;;;;;;;9.88;7.70;;;;;;;22.64;100.00;99534.28;4954683;28;20039;-79
2022/09/08 07:27:13;;;;;;;9.20;7.88;;;;;;;22.84;100.00;99530.22;4954083;28;20039;-79
2022/09/08 07:29:46;;;;;;;13.07;7.93;;;;;;;22.91;100.00;99524.72;4979619;28;20488;-79
2022/09/08 07:32:15;;;;;;;8.73;7.13;;;;;;;23.24;99.64;99518.59;4973953;28;20630;-80
2022/09/08 07:34:52;;;;;;;8.77;6.90;;;;;;;23.38;99.75;99521.47;4973881;28;20045;-77
2022/09/08 07:37:27;;;;;;;7.72;6.90;;;;;;;23.56;97.44;99515.81;4957659;28;20054;-80
2022/09/08 07:40:16;;;;;;;6.97;6.22;;;;;;;23.62;97.15;99519.28;4973851;28;20118;-78
2022/09/08 07:42:43;;;;;;;8.82;6.47;;;;;;;23.63;95.72;99531.38;4991438;28;20035;-78
2022/09/08 07:45:12;;;;;;;11.77;6.20;;;;;;;23.54;95.78;99515.56;4972837;28;20137;-80
2022/09/08 07:48:01;;;;;;;9.43;6.25;;;;;;;23.46;97.34;99516.72;4990799;28;20050;-79
2022/09/08 07:53:40;;;;;;;11.15;6.05;;;;;;;23.77;95.13;99518.81;4975983;28;20047;-79
2022/09/08 07:56:22;;;;;;;15.20;6.13;;;;;;;23.58;95.17;99512.41;4990840;28;20077;-79
2022/09/08 07:59:11;;;;;;;6.78;5.22;;;;;;;23.79;94.79;99516.19;4990960;28;20125;-86
2022/09/08 08:01:43;;;;;;;8.02;5.80;;;;;;;24.15;94.27;99514.53;4991340;28;20131;-87
2022/09/08 08:04:26;;;;;;;9.57;5.60;;;;;;;24.50;90.60;99504.09;4990407;28;20046;-86
2022/09/08 08:06:54;;;;;;;8.00;5.50;;;;;;;24.60;89.48;99516.50;4970376;28;20321;-85
2022/09/08 08:09:45;;;;;;;9.10;4.72;;;;;;;24.67;90.39;99517.94;4970107;28;20314;-87
2022/09/08 08:12:32;;;;;;;7.60;4.95;;;;;;;24.77;88.50;99511.25;4960620;28;20043;-86
2022/09/08 08:15:03;;;;;;;8.23;4.25;;;;;;;24.71;87.26;99510.59;4971644;28;20039;-86
2022/09/08 08:17:31;;;;;;;7.45;4.65;;;;;;;24.95;86.03;99493.31;4971747;28;20089;-85
2022/09/08 08:20:54;;;;;;;9.60;4.47;;;;;;;25.34;86.58;99505.88;4971763;28;20125;-86
2022/09/08 08:23:29;;;;;;;8.10;4.05;;;;;;;25.49;80.92;99495.44;4910621;29;20055;-86
2022/09/08 08:26:05;;;;;;;6.05;4.25;;;;;;;25.67;80.32;99493.72;4912168;29;20064;-86
2022/09/08 08:28:36;;;;;;;9.80;4.18;;;;;;;25.78;80.45;99493.44;4940804;28;20084;-86
2022/09/08 08:31:24;;;;;;;9.63;4.03;;;;;;;25.97;79.01;99488.28;4936223;29;20039;-85
2022/09/08 08:34:06;;;;;;;8.73;3.95;;;;;;;26.21;79.41;99475.00;4952536;28;20057;-86
2022/09/08 08:36:37;;;;;;;6.68;4.05;;;;;;;26.21;78.83;99477.84;4935662;28;20043;-86
2022/09/08 08:39:15;;;;;;;6.57;3.50;;;;;;;26.25;77.00;99483.94;4966279;28;20100;-78
2022/09/08 08:41:53;;;;;;;8.82;4.38;;;;;;;26.43;77.50;99485.78;4954919;28;20452;-78
2022/09/08 08:44:30;;;;;;;8.68;3.97;;;;;;;26.62;74.54;99472.03;4955597;28;20066;-78
2022/09/08 08:47:23;;;;;;;6.00;3.72;;;;;;;26.55;74.43;99472.75;4961707;28;20051;-79
2022/09/08 08:50:00;;;;;;;11.18;3.70;;;;;;;26.73;73.92;99477.38;4975224;28;20500;-79
2022/09/08 08:53:13;;;;;;;8.20;3.80;;;;;;;26.86;72.08;99473.66;4974714;28;20055;-79
2022/09/08 08:55:53;;;;;;;7.53;3.55;;;;;;;26.78;73.61;99472.84;4944273;28;20501;-79
2022/09/08 08:58:57;;;;;;;5.13;3.15;;;;;;;27.10;71.54;99472.41;4973326;28;20417;-79
2022/09/08 09:01:23;;;;;;;10.00;4.00;;;;;;;27.14;70.93;99472.78;4957276;28;20117;-79
2022/09/08 09:03:57;;;;;;;7.95;3.35;;;;;;;27.42;69.44;99455.56;4974855;28;20556;-79
2022/09/08 09:06:42;;;;;;;6.28;3.20;;;;;;;27.58;68.16;99462.81;4986314;28;20077;-78
2022/09/08 09:09:29;;;;;;;6.32;3.50;;;;;;;27.73;68.50;99457.16;4993941;28;20070;-79
2022/09/08 09:12:32;;;;;;;8.75;3.83;;;;;;;27.81;69.31;99449.34;4994322;28;20121;-79
2022/09/08 09:15:21;;;;;;;5.90;3.23;;;;;;;27.83;67.28;99443.81;4994294;28;20058;-79
2022/09/08 09:17:58;;;;;;;9.38;3.60;;;;;;;27.56;67.27;99456.94;4976493;28;20822;-79
2022/09/08 09:20:39;;;;;;;7.72;3.30;;;;;;;27.22;68.42;99453.63;4993713;28;20057;-80
2022/09/08 09:23:13;;;;;;;5.55;3.10;;;;;;;27.51;69.01;99452.19;4994167;28;20135;-79
2022/09/08 09:26:15;;;;;;;6.28;3.05;;;;;;;27.81;66.59;99451.44;4994115;28;20138;-80
2022/09/08 09:28:54;;;;;;;6.57;2.90;;;;;;;27.95;66.36;99449.13;4973327;28;20536;-79
2022/09/08 09:31:39;;;;;;;6.07;3.30;;;;;;;28.21;65.89;99451.59;4974300;28;20051;-79
2022/09/08 09:34:28;;;;;;;5.60;3.00;;;;;;;28.29;64.56;99455.19;4974416;28;20051;-79
2022/09/08 09:37:31;;;;;;;11.80;3.22;;;;;;;28.21;63.46;99460.91;4957336;28;20054;-80
2022/09/08 09:40:03;;;;;;;7.30;3.15;;;;;;;28.45;61.83;99456.66;4974107;28;20500;-80
2022/09/08 09:42:43;;;;;;;8.23;2.83;;;;;;;28.43;62.12;99453.63;4974107;28;20101;-78
2022/09/08 09:45:21;;;;;;;4.93;2.97;;;;;;;28.33;63.09;99455.56;4987662;28;20066;-80
2022/09/08 09:48:11;;;;;;;4.78;3.00;;;;;;;28.39;63.41;99464.66;4992979;28;20042;-79
2022/09/08 09:51:18;;;;;;;5.57;2.80;;;;;;;28.74;61.24;99468.56;4993277;28;20136;-79
2022/09/08 09:53:48;;;;;;;6.72;3.10;;;;;;;28.78;60.60;99468.16;4949594;28;20533;-79
2022/09/08 09:56:51;;;;;;;6.85;3.05;;;;;;;28.64;59.68;99468.38;4993391;28;20049;-80
2022/09/08 09:59:34;;;;;;;6.28;3.10;;;;;;;28.61;59.50;99466.69;4975558;28;20074;-80
2022/09/08 10:02:31;;;;;;;6.43;3.00;;;;;;;28.50;59.80;99467.13;4993279;28;20046;-79
2022/09/08 10:05:24;;;;;;;6.88;2.88;;;;;;;28.45;59.41;99468.06;4992802;28;20050;-79
2022/09/08 10:08:11;;;;;;;7.07;2.92;;;;;;;28.61;57.94;99458.13;4993358;28;20046;-80
2022/09/08 10:10:49;;;;;;;6.25;3.05;;;;;;;28.84;56.35;99460.13;4993126;28;20038;-80
2022/09/08 10:13:27;;;;;;;7.65;2.60;;;;;;;29.07;57.08;99446.53;4974774;28;20057;-79
2022/09/08 10:16:33;;;;;;;8.60;3.10;;;;;;;29.08;55.90;99434.50;4973608;28;20047;-79
2022/09/08 10:19:26;;;;;;;8.30;3.50;;;;;;;29.12;55.58;99426.28;4910118;28;20392;-79
2022/09/08 10:22:31;;;;;;;6.70;3.00;;;;;;;28.82;56.33;99431.44;4956304;28;20508;-79
2022/09/08 10:25:15;;;;;;;7.90;3.20;;;;;;;28.93;57.19;99443.16;4973423;28;20125;-80
2022/09/08 10:28:03;;;;;;;5.60;3.28;;;;;;;29.11;55.50;99456.22;4973433;28;20060;-79
2022/09/08 10:31:08;;;;;;;7.32;2.72;;;;;;;29.20;55.67;99460.50;4991907;28;20046;-80
2022/09/08 10:33:48;;;;;;;4.95;2.78;;;;;;;29.26;53.61;99452.47;4952231;28;20046;-79
2022/09/08 10:36:13;;;;;;;6.13;3.10;;;;;;;29.05;54.58;99455.66;4975231;28;20042;-80
2022/09/08 10:38:48;;;;;;;5.63;3.08;;;;;;;28.68;54.80;99463.03;4992170;28;20158;-79
2022/09/08 10:41:17;;;;;;;3.50;2.72;;;;;;;28.64;56.02;99456.97;4975185;28;20054;-80
2022/09/08 10:44:06;;;;;;;8.57;3.90;;;;;;;28.68;54.69;99460.19;4992175;28;20034;-79
2022/09/08 10:46:55;;;;;;;5.75;2.63;;;;;;;28.72;52.09;99457.72;4963185;28;20117;-79
2022/09/08 10:49:45;;;;;;;6.57;2.65;;;;;;;28.67;51.67;99463.63;4942404;28;20058;-79
2022/09/08 10:52:22;;;;;;;6.30;2.78;;;;;;;28.57;51.00;99463.47;4992237;28;20396;-80
2022/09/08 10:55:27;;;;;;;6.78;3.10;;;;;;;28.62;49.63;99467.44;4992013;28;20053;-80
2022/09/08 10:58:30;;;;;;;6.40;2.83;;;;;;;28.59;49.33;99472.19;4975627;28;20185;-80
2022/09/08 11:01:33;;;;;;;4.60;2.58;;;;;;;28.54;49.66;99473.19;4991539;28;20046;-79
2022/09/08 11:04:11;;;;;;;;;;;;;;;28.76;50.97;99480.16;4992530;28;20057;-80
2022/09/08 11:06:45;;;;;;;4.25;2.65;;;;;;;28.97;49.49;99482.72;4971292;28;19918;-80
2022/09/08 11:09:15;;;;;;;5.32;2.58;;;;;;;29.07;49.65;99470.13;4970956;28;20419;-80
2022/09/08 11:11:58;;;;;;;6.35;2.78;;;;;;;28.98;48.89;99482.16;4971609;28;20055;-85
2022/09/08 11:14:41;;;;;;;7.30;2.97;;;;;;;29.05;48.78;99487.06;4972117;28;20094;-85
2022/09/08 11:17:21;;;;;;;7.05;2.70;;;;;;;28.83;49.00;99495.75;4955044;28;20540;-85
2022/09/08 11:19:49;;;;;;;7.50;3.13;;;;;;;28.64;49.27;99491.22;4972192;28;20074;-85
2022/09/08 11:22:25;;;;;;;6.40;3.08;;;;;;;28.51;50.34;99496.41;4971203;28;20056;-85
2022/09/08 11:25:07;;;;;;;7.78;2.70;;;;;;;28.55;50.64;99483.25;4972414;28;20101;-85
2022/09/08 11:27:48;;;;;;;5.85;2.95;;;;;;;28.55;50.04;99500.38;4972223;28;20051;-85
2022/09/08 11:30:23;;;;;;;5.53;2.80;;;;;;;28.57;49.78;99494.09;4970329;28;20051;-86
2022/09/08 11:33:26;;;;;;;6.70;2.70;;;;;;;28.56;50.22;99495.41;4954945;28;20057;-85
2022/09/08 11:36:21;;;;;;;7.53;2.92;;;;;;;28.17;50.19;99491.91;4971863;28;20133;-85
2022/09/08 11:38:58;;;;;;;4.03;2.72;;;;;;;27.96;50.91;99490.56;4954490;28;20051;-84
2022/09/08 11:41:48;;;;;;;6.07;3.08;;;;;;;28.03;50.99;99484.09;4937238;28;20051;-84
2022/09/08 11:44:29;;;;;;;8.23;2.95;;;;;;;28.09;50.72;99481.84;4971418;28;20065;-85
2022/09/08 11:47:16;;;;;;;7.78;3.28;;;;;;;27.73;51.57;99485.66;4972011;28;20079;-85
2022/09/08 11:49:47;;;;;;;7.20;3.10;;;;;;;27.96;51.81;99479.94;4954671;28;20050;-83
2022/09/08 11:52:37;;;;;;;6.45;2.90;;;;;;;28.16;51.52;99481.06;4946271;28;20504;-85
2022/09/08 11:55:43;;;;;;;8.85;3.00;;;;;;;28.16;50.81;99472.50;4958582;28;20047;-84
2022/09/08 11:58:50;;;;;;;5.38;3.00;;;;;;;28.31;50.81;99474.59;4963356;28;20039;-84
2022/09/08 12:01:56;;;;;;;6.47;3.38;;;;;;;28.56;50.61;99472.59;4952867;28;20101;-85
2022/09/08 12:04:40;;;;;;;11.00;3.30;;;;;;;28.73;50.12;99464.94;4962715;28;20090;-85
2022/09/08 12:07:24;;;;;;;9.20;3.00;;;;;;;28.83;49.22;99467.19;4961670;28;20078;-84
2022/09/08 12:09:50;;;;;;;6.63;2.85;;;;;;;28.91;49.14;99462.97;4964144;28;20039;-79